createdAt,value
2019-03-31T00:00:40.836Z,1.77
2019-03-31T00:03:12.702Z,1.70
2019-03-31T00:05:43.642Z,1.83
2019-03-31T00:08:14.406Z,1.70
2019-03-31T00:10:46.778Z,1.90
2019-03-31T00:13:18.193Z,1.80
2019-03-31T00:15:48.097Z,1.93
2019-03-31T00:18:18.849Z,2.00
2019-03-31T00:20:51.070Z,1.90
2019-03-31T00:23:22.681Z,2.20
2019-03-31T00:25:55.883Z,2.60
2019-03-31T00:28:30.271Z,2.80
2019-03-31T00:31:02.780Z,2.47
2019-03-31T00:33:34.048Z,2.87
2019-03-31T00:36:07.499Z,3.30
2019-03-31T00:38:38.317Z,3.50
2019-03-31T00:41:10.137Z,3.00
2019-03-31T00:43:41.425Z,3.17
2019-03-31T00:46:13.990Z,3.67
2019-03-31T00:48:48.565Z,3.67
2019-03-31T00:51:23.137Z,3.77
2019-03-31T00:53:55.895Z,3.77
2019-03-31T00:56:27.389Z,3.80
2019-03-31T00:59:01.615Z,3.80
2019-03-31T01:01:46.733Z,3.30
2019-03-31T01:04:18.858Z,3.70
2019-03-31T01:06:54.778Z,3.50
2019-03-31T01:09:27.817Z,3.57
2019-03-31T01:12:03.933Z,3.90
2019-03-31T01:14:35.211Z,3.87
2019-03-31T01:17:07.464Z,3.57
2019-03-31T01:19:39.801Z,3.17
2019-03-31T01:22:12.164Z,3.70
2019-03-31T01:24:43.842Z,3.47
2019-03-31T01:27:19.821Z,4.27
2019-03-31T01:29:52.516Z,3.33
2019-03-31T01:32:24.930Z,4.03
2019-03-31T01:34:59.582Z,4.03
2019-03-31T01:37:32.641Z,3.30
2019-03-31T01:40:06.791Z,3.50
2019-03-31T01:42:38.425Z,3.83
2019-03-31T01:45:10.621Z,3.77
2019-03-31T01:47:41.197Z,3.67
2019-03-31T01:50:15.370Z,3.77
2019-03-31T01:52:49.626Z,3.77
2019-03-31T01:55:21.437Z,3.57
2019-03-31T01:57:53.308Z,3.10
2019-03-31T02:00:38.077Z,3.40
2019-03-31T02:03:10.997Z,3.20
2019-03-31T02:05:45.261Z,3.00
2019-03-31T02:08:17.211Z,3.77
2019-03-31T02:10:48.414Z,3.13
2019-03-31T02:13:21.942Z,2.83
2019-03-31T02:15:53.201Z,2.90
2019-03-31T02:18:23.399Z,2.70
2019-03-31T02:20:54.505Z,3.20
2019-03-31T02:23:28.549Z,2.93
2019-03-31T02:26:02.051Z,2.80
2019-03-31T02:28:38.076Z,2.50
2019-03-31T02:31:11.796Z,2.57
2019-03-31T02:33:43.645Z,2.33
2019-03-31T02:36:15.904Z,2.87
2019-03-31T02:38:47.833Z,2.83
2019-03-31T02:41:19.935Z,2.80
2019-03-31T02:43:50.535Z,2.97
2019-03-31T02:46:22.123Z,2.27
2019-03-31T02:49:01.999Z,2.73
2019-03-31T02:51:36.795Z,2.70
2019-03-31T02:54:12.953Z,2.73
2019-03-31T02:56:44.826Z,2.40
2019-03-31T02:59:17.781Z,2.77
2019-03-31T03:01:49.367Z,2.57
2019-03-31T03:04:25.637Z,2.40
2019-03-31T03:07:02.907Z,2.00
2019-03-31T03:09:37.662Z,2.20
2019-03-31T03:12:12.038Z,2.40
2019-03-31T03:14:43.966Z,2.73
2019-03-31T03:17:19.807Z,2.50
2019-03-31T03:19:51.147Z,2.60
2019-03-31T03:22:27.294Z,2.50
2019-03-31T03:25:21.158Z,2.20
2019-03-31T03:27:52.510Z,2.47
2019-03-31T03:33:17.309Z,2.43
2019-03-31T03:35:48.369Z,2.37
2019-03-31T03:38:20.097Z,2.23
2019-03-31T03:40:56.360Z,2.57
2019-03-31T03:43:29.676Z,2.67
2019-03-31T03:46:04.385Z,2.33
2019-03-31T03:48:36.290Z,2.40
2019-03-31T03:51:11.872Z,2.20
2019-03-31T03:53:43.661Z,1.90
2019-03-31T03:56:16.058Z,2.83
2019-03-31T03:58:49.164Z,2.83
2019-03-31T04:01:23.294Z,2.47
2019-03-31T04:03:56.089Z,2.80
2019-03-31T04:09:23.737Z,2.30
2019-03-31T04:11:57.069Z,3.20
2019-03-31T04:14:29.881Z,2.50
2019-03-31T04:17:01.493Z,2.80
2019-03-31T04:19:36.885Z,2.13
2019-03-31T04:22:09.058Z,2.30
2019-03-31T04:24:39.844Z,2.50
2019-03-31T04:27:18.750Z,2.40
2019-03-31T04:29:51.797Z,2.60
2019-03-31T04:32:25.469Z,1.80
2019-03-31T04:35:01.919Z,2.37
2019-03-31T04:37:34.312Z,2.07
2019-03-31T04:40:05.469Z,1.97
2019-03-31T04:42:39.808Z,1.97
2019-03-31T04:45:13.461Z,2.00
2019-03-31T04:47:47.778Z,2.23
2019-03-31T04:50:26.792Z,2.30
2019-03-31T04:53:01.697Z,2.20
2019-03-31T04:55:34.551Z,1.90
2019-03-31T04:58:05.205Z,1.50
2019-03-31T05:00:37.089Z,1.67
2019-03-31T05:03:07.769Z,1.77
2019-03-31T05:05:38.870Z,1.80
2019-03-31T05:08:09.717Z,1.63
2019-03-31T05:10:42.064Z,1.97
2019-03-31T05:13:14.257Z,1.60
2019-03-31T05:15:47.928Z,1.70
2019-03-31T05:18:20.257Z,1.70
2019-03-31T05:20:51.117Z,1.67
2019-03-31T05:23:24.827Z,1.40
2019-03-31T05:25:57.005Z,1.53
2019-03-31T05:28:28.585Z,1.20
2019-03-31T05:31:03.550Z,1.20
2019-03-31T05:33:36.827Z,1.40
2019-03-31T05:36:11.009Z,1.10
2019-03-31T05:38:41.500Z,1.20
2019-03-31T05:41:13.505Z,1.00
2019-03-31T05:43:47.259Z,1.10
2019-03-31T05:46:19.549Z,1.03
2019-03-31T05:48:53.981Z,1.10
2019-03-31T05:51:25.259Z,0.97
2019-03-31T05:53:58.694Z,0.83
2019-03-31T05:56:31.365Z,0.83
2019-03-31T05:59:04.000Z,1.00
2019-03-31T06:01:36.297Z,1.43
2019-03-31T06:04:10.475Z,0.90
2019-03-31T06:06:46.517Z,0.90
2019-03-31T06:09:18.865Z,1.00
2019-03-31T06:11:53.383Z,1.00
2019-03-31T06:14:24.629Z,1.30
2019-03-31T06:16:57.081Z,1.03
2019-03-31T06:19:29.201Z,0.90
2019-03-31T06:22:00.339Z,0.90
2019-03-31T06:24:31.613Z,1.10
2019-03-31T06:27:03.842Z,1.00
2019-03-31T06:29:34.467Z,1.03
2019-03-31T06:32:05.290Z,0.80
2019-03-31T06:34:47.375Z,0.87
2019-03-31T06:37:09.534Z,0.97
2019-03-31T06:39:39.601Z,0.93
2019-03-31T06:42:11.413Z,0.80
2019-03-31T06:44:44.617Z,0.63
2019-03-31T06:47:16.979Z,0.90
2019-03-31T06:49:47.665Z,0.60
2019-03-31T06:52:18.937Z,0.70
2019-03-31T06:54:52.912Z,0.50
2019-03-31T06:57:24.794Z,0.60
2019-03-31T06:59:55.113Z,0.77
2019-03-31T07:02:25.343Z,0.50
2019-03-31T07:05:01.366Z,0.40
2019-03-31T07:07:29.498Z,0.60
2019-03-31T07:10:04.186Z,0.50
2019-03-31T07:12:34.893Z,0.57
2019-03-31T07:15:07.508Z,0.43
2019-03-31T07:17:37.919Z,0.27
2019-03-31T07:20:09.749Z,0.33
2019-03-31T07:22:40.841Z,0.40
2019-03-31T07:25:17.532Z,0.40
2019-03-31T07:27:48.270Z,0.40
2019-03-31T07:30:20.353Z,0.40
2019-03-31T07:32:53.372Z,0.50
2019-03-31T07:35:24.753Z,0.67
2019-03-31T07:37:56.526Z,0.40
2019-03-31T07:40:30.525Z,0.40
2019-03-31T07:43:03.015Z,0.50
2019-03-31T07:45:35.860Z,0.60
2019-03-31T07:48:08.316Z,0.60
2019-03-31T07:50:40.673Z,0.50
2019-03-31T07:53:13.369Z,0.40
2019-03-31T07:55:46.655Z,0.70
2019-03-31T07:58:21.501Z,0.50
2019-03-31T08:00:53.109Z,0.50
2019-03-31T08:03:25.709Z,0.40
2019-03-31T08:06:01.353Z,0.50
2019-03-31T08:08:34.085Z,0.60
2019-03-31T08:11:05.876Z,0.43
2019-03-31T08:13:37.885Z,0.33
2019-03-31T08:16:09.345Z,0.60
2019-03-31T08:18:43.385Z,0.60
2019-03-31T08:21:13.558Z,0.30
2019-03-31T08:23:44.949Z,0.60
2019-03-31T08:26:16.525Z,0.60
2019-03-31T08:28:48.185Z,0.57
2019-03-31T08:31:18.965Z,0.50
2019-03-31T08:33:51.267Z,0.60
2019-03-31T08:36:22.027Z,0.50
2019-03-31T08:38:53.800Z,0.50
2019-03-31T08:41:24.697Z,0.63
2019-03-31T08:47:07.438Z,0.70
2019-03-31T08:49:39.153Z,0.50
2019-03-31T08:52:10.022Z,0.70
2019-03-31T08:54:40.400Z,0.40
2019-03-31T08:57:11.513Z,0.67
2019-03-31T08:59:47.348Z,0.53
2019-03-31T09:02:38.781Z,0.80
2019-03-31T09:05:09.734Z,0.40
2019-03-31T09:07:41.990Z,0.40
2019-03-31T09:10:12.775Z,0.60
2019-03-31T09:12:48.418Z,0.50
2019-03-31T09:15:20.321Z,0.60
2019-03-31T09:17:54.098Z,0.63
2019-03-31T09:20:24.019Z,0.50
2019-03-31T09:22:55.789Z,0.57
2019-03-31T09:25:26.213Z,0.47
2019-03-31T09:27:59.608Z,0.50
2019-03-31T09:30:32.059Z,0.70
2019-03-31T09:33:05.305Z,0.70
2019-03-31T09:35:36.913Z,0.60
2019-03-31T09:38:12.412Z,0.40
2019-03-31T09:40:45.209Z,0.50
2019-03-31T09:43:16.815Z,0.60
2019-03-31T09:45:51.289Z,0.77
2019-03-31T09:48:22.031Z,0.50
2019-03-31T09:50:56.452Z,0.40
2019-03-31T09:53:27.346Z,0.40
2019-03-31T09:56:00.574Z,0.60
2019-03-31T09:58:33.165Z,0.50
2019-03-31T10:01:07.765Z,0.70
2019-03-31T10:03:36.365Z,0.60
2019-03-31T10:06:11.102Z,0.63
2019-03-31T10:08:41.889Z,0.40
2019-03-31T10:11:12.158Z,0.67
2019-03-31T10:13:44.006Z,0.50
2019-03-31T10:16:14.774Z,0.50
2019-03-31T10:18:45.629Z,0.60
2019-03-31T10:21:17.053Z,1.17
2019-03-31T10:23:47.452Z,0.60
2019-03-31T10:26:31.094Z,0.97
2019-03-31T10:28:53.077Z,0.70
2019-03-31T10:31:24.217Z,0.70
2019-03-31T10:33:55.576Z,0.70
2019-03-31T10:36:27.017Z,0.60
2019-03-31T10:38:58.495Z,0.73
2019-03-31T10:41:31.086Z,0.50
2019-03-31T10:44:02.461Z,0.50
2019-03-31T10:46:33.127Z,0.50
2019-03-31T10:49:04.035Z,0.47
2019-03-31T10:51:34.782Z,0.40
2019-03-31T10:54:04.980Z,0.50
2019-03-31T10:56:35.817Z,0.40
2019-03-31T10:59:06.432Z,0.40
2019-03-31T11:01:38.396Z,0.63
2019-03-31T11:04:08.616Z,0.60
2019-03-31T11:06:59.124Z,0.73
2019-03-31T11:09:34.189Z,0.70
2019-03-31T11:12:03.565Z,0.60
2019-03-31T11:14:34.480Z,0.57
2019-03-31T11:17:05.273Z,0.33
2019-03-31T11:19:35.439Z,0.60
2019-03-31T11:22:13.875Z,0.40
2019-03-31T11:24:44.704Z,0.60
2019-03-31T11:30:42.519Z,0.70
2019-03-31T11:33:13.883Z,0.70
2019-03-31T11:35:44.677Z,0.50
2019-03-31T11:38:46.533Z,0.67
2019-03-31T11:41:19.492Z,0.60
2019-03-31T11:43:50.340Z,0.53
2019-03-31T11:46:21.240Z,0.60
2019-03-31T11:48:52.987Z,0.70
2019-03-31T11:51:23.577Z,0.50
2019-03-31T11:53:54.309Z,0.60
2019-03-31T11:56:24.839Z,0.60
2019-03-31T11:58:55.618Z,0.70
2019-03-31T12:01:26.382Z,0.50
2019-03-31T12:03:57.155Z,0.73
2019-03-31T12:06:27.919Z,0.70
2019-03-31T12:08:57.970Z,0.97
2019-03-31T12:11:29.307Z,1.20
2019-03-31T12:13:59.020Z,1.53
2019-03-31T12:16:32.105Z,0.70
2019-03-31T12:19:05.029Z,0.67
2019-03-31T12:21:35.764Z,0.70
2019-03-31T12:24:06.897Z,0.60
2019-03-31T12:26:37.072Z,0.80
2019-03-31T12:29:07.357Z,0.70
2019-03-31T12:31:38.085Z,0.60
2019-03-31T12:34:08.589Z,0.63
2019-03-31T12:36:39.232Z,0.73
2019-03-31T12:39:11.043Z,0.60
2019-03-31T12:41:41.817Z,0.50
2019-03-31T12:44:12.522Z,0.43
2019-03-31T12:46:42.721Z,0.60
2019-03-31T12:49:12.768Z,1.03
2019-03-31T12:51:43.685Z,0.60
2019-03-31T12:54:13.930Z,0.77
2019-03-31T12:56:47.732Z,0.50
2019-03-31T12:59:20.509Z,0.97
2019-03-31T13:01:51.008Z,0.80
2019-03-31T13:04:21.201Z,0.60
2019-03-31T13:06:52.214Z,0.80
2019-03-31T13:09:23.292Z,0.50
2019-03-31T13:11:55.326Z,0.73
2019-03-31T13:14:26.248Z,0.67
2019-03-31T13:17:01.458Z,0.53
2019-03-31T13:19:30.712Z,0.60
2019-03-31T13:22:01.241Z,0.60
2019-03-31T13:24:33.173Z,0.50
2019-03-31T13:27:07.014Z,0.70
2019-03-31T13:30:21.953Z,0.50
2019-03-31T13:32:51.647Z,0.60
2019-03-31T13:35:21.784Z,0.63
2019-03-31T13:37:52.225Z,0.77
2019-03-31T13:40:23.680Z,0.60
2019-03-31T13:42:54.203Z,0.80
2019-03-31T13:45:24.983Z,0.40
2019-03-31T13:47:58.523Z,0.60
2019-03-31T13:50:28.365Z,0.70
2019-03-31T13:52:59.148Z,0.60
2019-03-31T13:55:30.261Z,0.60
2019-03-31T13:58:02.406Z,0.70
2019-03-31T14:00:35.019Z,0.53
2019-03-31T14:03:06.201Z,0.70
2019-03-31T14:05:37.120Z,0.60
2019-03-31T14:08:08.540Z,0.60
2019-03-31T14:10:39.542Z,0.60
2019-03-31T14:13:09.951Z,0.70
2019-03-31T14:15:40.925Z,0.60
2019-03-31T14:18:12.145Z,0.50
2019-03-31T14:20:45.990Z,0.60
2019-03-31T14:23:16.729Z,0.80
2019-03-31T14:25:47.551Z,0.70
2019-03-31T14:28:18.354Z,0.70
2019-03-31T14:30:48.826Z,0.60
2019-03-31T14:33:19.673Z,0.63
2019-03-31T14:35:50.567Z,0.70
2019-03-31T14:38:21.109Z,0.80
2019-03-31T14:40:51.094Z,0.90
2019-03-31T14:43:21.759Z,0.90
2019-03-31T14:45:52.499Z,0.70
2019-03-31T14:48:24.521Z,0.63
2019-03-31T14:50:56.995Z,0.60
2019-03-31T14:53:27.159Z,0.77
2019-03-31T14:55:57.942Z,0.50
2019-03-31T14:58:28.800Z,0.60
2019-03-31T15:01:00.369Z,0.70
2019-03-31T15:03:30.697Z,0.60
2019-03-31T15:06:00.892Z,0.70
2019-03-31T15:08:31.713Z,0.80
2019-03-31T15:11:02.157Z,0.73
2019-03-31T15:13:33.313Z,0.77
2019-03-31T15:16:04.129Z,0.60
2019-03-31T15:18:34.156Z,0.70
2019-03-31T15:21:04.554Z,0.60
2019-03-31T15:23:35.545Z,0.70
2019-03-31T15:26:06.189Z,0.50
2019-03-31T15:28:36.910Z,0.50
2019-03-31T15:31:08.702Z,0.50
2019-03-31T15:33:40.062Z,0.70
2019-03-31T15:36:10.370Z,0.80
2019-03-31T15:38:40.583Z,0.70
2019-03-31T15:41:21.144Z,0.50
2019-03-31T15:43:43.757Z,0.50
2019-03-31T15:46:14.357Z,0.70
2019-03-31T15:48:45.060Z,0.50
2019-03-31T15:51:15.237Z,0.63
2019-03-31T15:53:46.164Z,0.47
2019-03-31T15:56:16.469Z,0.50
2019-03-31T15:58:47.301Z,0.60
2019-03-31T16:01:17.193Z,0.50
2019-03-31T16:03:48.497Z,0.50
2019-03-31T16:06:18.757Z,0.53
2019-03-31T16:08:50.553Z,0.70
2019-03-31T16:11:20.678Z,0.77
2019-03-31T16:13:51.072Z,0.57
2019-03-31T16:16:21.100Z,0.40
2019-03-31T16:18:51.653Z,0.70
2019-03-31T16:21:22.222Z,0.50
2019-03-31T16:23:52.425Z,0.60
2019-03-31T16:26:26.256Z,0.50
2019-03-31T16:28:57.072Z,0.60
2019-03-31T16:31:30.212Z,1.10
2019-03-31T16:34:00.678Z,0.60
2019-03-31T16:36:32.252Z,0.67
2019-03-31T16:39:04.049Z,1.67
2019-03-31T16:41:34.390Z,3.30
2019-03-31T16:44:05.169Z,0.60
2019-03-31T16:46:34.933Z,0.50
2019-03-31T16:49:05.052Z,0.53
2019-03-31T16:51:38.968Z,0.60
2019-03-31T16:54:09.317Z,0.60
2019-03-31T16:56:40.273Z,0.60
2019-03-31T16:59:10.838Z,0.60
2019-03-31T17:01:42.645Z,12.57
2019-03-31T17:04:12.589Z,1.40
2019-03-31T17:06:43.181Z,0.53
2019-03-31T17:09:12.995Z,0.43
2019-03-31T17:11:43.482Z,0.47
2019-03-31T17:14:14.175Z,0.43
2019-03-31T17:16:46.059Z,0.53
2019-03-31T17:19:15.566Z,0.40
2019-03-31T17:21:45.241Z,0.43
2019-03-31T17:24:15.265Z,0.60
2019-03-31T17:26:44.935Z,0.50
2019-03-31T17:29:15.088Z,0.40
2019-03-31T17:31:44.516Z,0.60
2019-03-31T17:34:15.573Z,0.57
2019-03-31T17:36:45.996Z,0.50
2019-03-31T17:39:15.757Z,1.30
2019-03-31T17:41:46.970Z,0.60
2019-03-31T17:44:17.285Z,0.70
2019-03-31T17:46:47.821Z,0.47
2019-03-31T17:49:19.214Z,0.80
2019-03-31T17:51:50.471Z,0.57
2019-03-31T17:54:21.551Z,0.57
2019-03-31T17:56:51.573Z,0.50
2019-03-31T17:59:22.425Z,0.33
2019-03-31T18:01:52.855Z,0.83
2019-03-31T18:04:22.581Z,0.80
2019-03-31T18:06:52.833Z,0.50
2019-03-31T18:09:22.860Z,0.50
2019-03-31T18:11:52.660Z,0.80
2019-03-31T18:14:22.630Z,0.77
2019-03-31T18:16:53.271Z,0.60
2019-03-31T18:19:24.334Z,0.70
2019-03-31T18:21:53.877Z,0.50
2019-03-31T18:24:24.104Z,0.90
2019-03-31T18:26:55.613Z,0.70
2019-03-31T18:29:28.008Z,0.50
2019-03-31T18:32:03.127Z,0.57
2019-03-31T18:34:35.041Z,0.40
2019-03-31T18:37:05.950Z,0.40
2019-03-31T18:39:37.994Z,0.90
2019-03-31T18:42:07.625Z,0.70
2019-03-31T18:44:37.694Z,0.60
2019-03-31T18:47:08.022Z,0.50
2019-03-31T18:49:38.721Z,0.70
2019-03-31T18:52:08.454Z,0.60
2019-03-31T18:54:54.930Z,0.60
2019-03-31T18:57:42.170Z,0.70
2019-03-31T19:00:37.821Z,0.70
2019-03-31T19:03:15.554Z,0.73
2019-03-31T19:06:04.113Z,0.50
2019-03-31T19:08:42.384Z,0.70
2019-03-31T19:11:40.181Z,0.60
2019-03-31T19:14:31.104Z,0.90
2019-03-31T19:17:19.414Z,0.53
2019-03-31T19:20:27.545Z,0.80
2019-03-31T19:23:05.834Z,0.60
2019-03-31T19:25:50.569Z,0.60
2019-03-31T19:28:37.939Z,0.63
2019-03-31T19:31:18.694Z,0.63
2019-03-31T19:34:16.717Z,0.50
2019-03-31T19:37:09.091Z,0.60
2019-03-31T19:40:01.263Z,0.60
2019-03-31T19:42:39.418Z,0.63
2019-03-31T19:45:18.612Z,0.70
2019-03-31T19:47:59.415Z,0.60
2019-03-31T19:50:47.294Z,0.60
2019-03-31T19:53:35.918Z,0.60
2019-03-31T19:56:20.982Z,1.07
2019-03-31T19:59:10.033Z,0.60
2019-03-31T20:01:55.482Z,0.60
2019-03-31T20:04:46.069Z,0.67
2019-03-31T20:07:39.163Z,0.70
2019-03-31T20:10:34.281Z,0.80
2019-03-31T20:13:24.153Z,0.60
2019-03-31T20:16:16.734Z,0.60
2019-03-31T20:18:59.253Z,0.40
2019-03-31T20:21:35.003Z,0.50
2019-03-31T20:24:18.249Z,0.50
2019-03-31T20:26:55.382Z,0.60
2019-03-31T20:29:39.057Z,0.80
2019-03-31T20:32:29.037Z,0.60
2019-03-31T20:35:07.837Z,0.90
2019-03-31T20:37:55.637Z,0.70
2019-03-31T20:40:44.101Z,0.40
2019-03-31T20:43:31.294Z,0.40
2019-03-31T20:46:04.316Z,0.60
2019-03-31T20:48:34.431Z,0.60
2019-03-31T20:51:04.979Z,0.70
2019-03-31T20:53:35.361Z,0.50
2019-03-31T20:56:06.329Z,0.70
2019-03-31T20:58:36.604Z,0.70
2019-03-31T21:01:10.056Z,0.70
2019-03-31T21:03:39.845Z,0.63
2019-03-31T21:06:10.205Z,0.50
2019-03-31T21:08:40.842Z,0.60
2019-03-31T21:11:11.492Z,0.60
2019-03-31T21:13:41.861Z,0.40
2019-03-31T21:16:12.282Z,0.50
2019-03-31T21:18:42.713Z,0.63
2019-03-31T21:21:13.269Z,0.40
2019-03-31T21:23:42.962Z,0.57
2019-03-31T21:26:42.081Z,0.50
2019-03-31T21:29:13.571Z,0.50
2019-03-31T21:31:43.368Z,0.40
2019-03-31T21:34:13.675Z,0.50
2019-03-31T21:36:43.916Z,0.50
2019-03-31T21:39:13.856Z,0.50
2019-03-31T21:41:44.697Z,0.50
2019-03-31T21:44:15.033Z,0.60
2019-03-31T21:46:45.500Z,0.40
2019-03-31T21:49:15.429Z,0.53
2019-03-31T21:51:47.438Z,0.40
2019-03-31T21:54:17.915Z,0.50
2019-03-31T21:56:50.349Z,0.47
2019-03-31T21:59:21.813Z,0.40
2019-03-31T22:01:53.661Z,0.90
2019-03-31T22:04:23.584Z,0.60
2019-03-31T22:06:55.450Z,0.50
2019-03-31T22:09:26.066Z,0.50
2019-03-31T22:11:56.252Z,0.50
2019-03-31T22:14:26.630Z,0.50
2019-03-31T22:16:57.059Z,0.33
2019-03-31T22:19:26.595Z,0.50
2019-03-31T22:21:57.014Z,0.67
2019-03-31T22:24:26.776Z,0.50
2019-03-31T22:26:56.848Z,0.40
2019-03-31T22:29:26.864Z,0.70
2019-03-31T22:31:56.941Z,0.50
2019-03-31T22:34:28.205Z,0.50
2019-03-31T22:36:58.105Z,0.37
2019-03-31T22:39:28.669Z,0.50
2019-03-31T22:41:59.309Z,0.30
2019-03-31T22:44:30.266Z,0.43
2019-03-31T22:47:00.217Z,0.50
2019-03-31T22:49:30.110Z,0.50
2019-03-31T22:52:00.118Z,0.60
2019-03-31T22:54:29.917Z,0.80
2019-03-31T22:57:00.276Z,0.40
2019-03-31T22:59:30.233Z,0.30
2019-03-31T23:01:59.901Z,0.50
2019-03-31T23:04:30.469Z,0.47
2019-03-31T23:07:00.371Z,0.30
2019-03-31T23:09:30.411Z,0.50
2019-03-31T23:12:01.013Z,0.33
2019-03-31T23:14:31.545Z,0.40
2019-03-31T23:17:01.888Z,0.50
2019-03-31T23:19:32.108Z,0.33
2019-03-31T23:22:02.014Z,0.53
2019-03-31T23:24:33.005Z,0.40
2019-03-31T23:27:02.801Z,0.40
2019-03-31T23:29:32.814Z,0.33
2019-03-31T23:32:02.567Z,0.60
2019-03-31T23:34:34.073Z,0.40
2019-03-31T23:37:05.677Z,0.40
2019-03-31T23:39:36.093Z,0.40
2019-03-31T23:42:05.941Z,0.50
2019-03-31T23:44:35.848Z,0.50
2019-03-31T23:47:05.604Z,0.40
2019-03-31T23:49:34.718Z,0.60
2019-03-31T23:52:05.352Z,0.47
2019-03-31T23:54:35.573Z,0.30
2019-03-31T23:57:06.187Z,0.40
2019-03-31T23:59:37.108Z,0.50
